ePrivacy and GPDR Cookie Consent by Cookie Consent
EmailTwitter


Observations de surface / France / LFMK (07635)

Régions: Québec | Canada | États-Unis | Europe | France | UK | Ailleurs
Station
Affichage
Infos & localisation pour LFMK (07635) | Aide pour décoder les METARs

Observations prises le 2023-01-31 à 17H30 UTC à CARCASSONNE/SALV, FR (LFMK)

Etat du ciel: ciel variable.

Température: 8.0 Celsius

Point de rosée: 3.0 Celsius

Humidité relative: 71%

Facteur vent: 5.

Vents: Ouest à 20 km/h ou 11 noeuds.

Pression au niveau moyen de la mer: 103.00 kilopascals.

Visibilité horizontale: 6.21 milles terrestres ou 9.94 kilomètres.

Observation METAR:

LFMK 311730Z AUTO 26011KT 230V290 9999 SCT036 08/03 Q1030 =